sensor_id;sensor_type;location;lat;lon;timestamp;P1;durP1;ratioP1;P2;durP2;ratioP2
50779;SDS011;36748;37.428;-121.972;2023-04-24T00:00:41;1.98;;;0.75;;
50779;SDS011;36748;37.428;-121.972;2023-04-24T00:03:10;1.55;;;0.68;;
50779;SDS011;36748;37.428;-121.972;2023-04-24T00:05:38;2.00;;;0.70;;
50779;SDS011;36748;37.428;-121.972;2023-04-24T00:08:05;2.85;;;0.75;;
50779;SDS011;36748;37.428;-121.972;2023-04-24T00:10:31;1.75;;;0.57;;
50779;SDS011;36748;37.428;-121.972;2023-04-24T00:12:58;2.17;;;0.63;;
50779;SDS011;36748;37.428;-121.972;2023-04-24T00:15:24;1.85;;;0.75;;
50779;SDS011;36748;37.428;-121.972;2023-04-24T00:17:50;1.02;;;0.60;;
50779;SDS011;36748;37.428;-121.972;2023-04-24T00:20:18;2.67;;;0.90;;
50779;SDS011;36748;37.428;-121.972;2023-04-24T00:22:44;2.28;;;0.75;;
50779;SDS011;36748;37.428;-121.972;2023-04-24T00:25:11;1.13;;;0.47;;
50779;SDS011;36748;37.428;-121.972;2023-04-24T00:27:37;2.20;;;0.60;;
50779;SDS011;36748;37.428;-121.972;2023-04-24T00:30:04;1.42;;;0.77;;
50779;SDS011;36748;37.428;-121.972;2023-04-24T00:32:31;2.63;;;1.08;;
50779;SDS011;36748;37.428;-121.972;2023-04-24T00:34:57;2.22;;;0.70;;
50779;SDS011;36748;37.428;-121.972;2023-04-24T00:37:23;1.60;;;0.60;;
50779;SDS011;36748;37.428;-121.972;2023-04-24T00:39:50;1.65;;;0.63;;
50779;SDS011;36748;37.428;-121.972;2023-04-24T00:42:17;2.75;;;0.50;;
50779;SDS011;36748;37.428;-121.972;2023-04-24T00:44:43;2.15;;;0.70;;
50779;SDS011;36748;37.428;-121.972;2023-04-24T00:47:10;0.93;;;0.40;;
50779;SDS011;36748;37.428;-121.972;2023-04-24T00:49:37;1.10;;;0.52;;
50779;SDS011;36748;37.428;-121.972;2023-04-24T00:52:03;1.63;;;0.60;;
50779;SDS011;36748;37.428;-121.972;2023-04-24T00:54:32;1.83;;;0.80;;
50779;SDS011;36748;37.428;-121.972;2023-04-24T00:56:59;2.13;;;0.55;;
50779;SDS011;36748;37.428;-121.972;2023-04-24T00:59:26;2.05;;;0.60;;
50779;SDS011;36748;37.428;-121.972;2023-04-24T01:01:52;1.23;;;0.40;;
50779;SDS011;36748;37.428;-121.972;2023-04-24T01:04:19;1.85;;;0.65;;
50779;SDS011;36748;37.428;-121.972;2023-04-24T01:06:45;1.15;;;0.45;;
50779;SDS011;36748;37.428;-121.972;2023-04-24T01:09:12;1.60;;;0.60;;
50779;SDS011;36748;37.428;-121.972;2023-04-24T01:11:40;2.22;;;0.50;;
50779;SDS011;36748;37.428;-121.972;2023-04-24T01:14:08;1.73;;;0.70;;
50779;SDS011;36748;37.428;-121.972;2023-04-24T01:16:35;0.95;;;0.70;;
50779;SDS011;36748;37.428;-121.972;2023-04-24T01:19:03;1.42;;;0.75;;
50779;SDS011;36748;37.428;-121.972;2023-04-24T01:21:31;1.77;;;0.63;;
50779;SDS011;36748;37.428;-121.972;2023-04-24T01:24:02;1.38;;;0.73;;
50779;SDS011;36748;37.428;-121.972;2023-04-24T01:26:29;2.28;;;0.75;;
50779;SDS011;36748;37.428;-121.972;2023-04-24T01:28:55;1.60;;;0.77;;
50779;SDS011;36748;37.428;-121.972;2023-04-24T01:31:22;1.88;;;0.80;;
50779;SDS011;36748;37.428;-121.972;2023-04-24T01:33:49;1.92;;;0.80;;
50779;SDS011;36748;37.428;-121.972;2023-04-24T01:36:16;2.70;;;0.75;;
50779;SDS011;36748;37.428;-121.972;2023-04-24T01:38:43;1.70;;;0.60;;
50779;SDS011;36748;37.428;-121.972;2023-04-24T01:41:10;2.05;;;0.88;;
50779;SDS011;36748;37.428;-121.972;2023-04-24T01:43:36;2.35;;;0.70;;
50779;SDS011;36748;37.428;-121.972;2023-04-24T01:46:02;1.23;;;0.60;;
50779;SDS011;36748;37.428;-121.972;2023-04-24T01:48:29;1.88;;;0.80;;
50779;SDS011;36748;37.428;-121.972;2023-04-24T01:50:56;3.75;;;0.65;;
50779;SDS011;36748;37.428;-121.972;2023-04-24T01:53:22;2.30;;;0.60;;
50779;SDS011;36748;37.428;-121.972;2023-04-24T01:55:49;1.50;;;0.60;;
50779;SDS011;36748;37.428;-121.972;2023-04-24T01:58:15;1.33;;;0.60;;
50779;SDS011;36748;37.428;-121.972;2023-04-24T02:00:41;2.25;;;0.80;;
50779;SDS011;36748;37.428;-121.972;2023-04-24T02:03:08;2.70;;;0.60;;
50779;SDS011;36748;37.428;-121.972;2023-04-24T02:05:34;2.47;;;1.02;;
50779;SDS011;36748;37.428;-121.972;2023-04-24T02:08:00;1.85;;;0.70;;
50779;SDS011;36748;37.428;-121.972;2023-04-24T02:10:26;1.65;;;0.70;;
50779;SDS011;36748;37.428;-121.972;2023-04-24T02:12:53;2.92;;;1.08;;
50779;SDS011;36748;37.428;-121.972;2023-04-24T02:15:19;1.23;;;0.60;;
50779;SDS011;36748;37.428;-121.972;2023-04-24T02:17:45;1.05;;;0.60;;
50779;SDS011;36748;37.428;-121.972;2023-04-24T02:20:11;2.20;;;0.80;;
50779;SDS011;36748;37.428;-121.972;2023-04-24T02:22:38;1.75;;;0.70;;
50779;SDS011;36748;37.428;-121.972;2023-04-24T02:25:04;1.48;;;0.77;;
50779;SDS011;36748;37.428;-121.972;2023-04-24T02:27:31;2.90;;;0.57;;
50779;SDS011;36748;37.428;-121.972;2023-04-24T02:29:57;2.15;;;0.77;;
50779;SDS011;36748;37.428;-121.972;2023-04-24T02:32:23;3.00;;;1.02;;
50779;SDS011;36748;37.428;-121.972;2023-04-24T02:34:50;1.77;;;0.73;;
50779;SDS011;36748;37.428;-121.972;2023-04-24T02:37:16;2.13;;;1.13;;
50779;SDS011;36748;37.428;-121.972;2023-04-24T02:39:42;3.33;;;1.15;;
50779;SDS011;36748;37.428;-121.972;2023-04-24T02:42:09;1.98;;;0.80;;
50779;SDS011;36748;37.428;-121.972;2023-04-24T02:44:37;1.98;;;0.73;;
50779;SDS011;36748;37.428;-121.972;2023-04-24T02:47:03;2.95;;;1.10;;
50779;SDS011;36748;37.428;-121.972;2023-04-24T02:49:29;3.53;;;1.20;;
50779;SDS011;36748;37.428;-121.972;2023-04-24T02:51:56;2.60;;;0.80;;
50779;SDS011;36748;37.428;-121.972;2023-04-24T02:54:22;1.40;;;0.73;;
50779;SDS011;36748;37.428;-121.972;2023-04-24T02:56:48;2.20;;;1.10;;
50779;SDS011;36748;37.428;-121.972;2023-04-24T02:59:14;4.65;;;1.70;;
50779;SDS011;36748;37.428;-121.972;2023-04-24T03:01:41;4.68;;;1.33;;
50779;SDS011;36748;37.428;-121.972;2023-04-24T03:04:07;3.65;;;1.42;;
50779;SDS011;36748;37.428;-121.972;2023-04-24T03:06:33;4.45;;;1.25;;
50779;SDS011;36748;37.428;-121.972;2023-04-24T03:09:00;6.75;;;1.52;;
50779;SDS011;36748;37.428;-121.972;2023-04-24T03:11:27;6.07;;;1.65;;
50779;SDS011;36748;37.428;-121.972;2023-04-24T03:13:53;4.05;;;1.63;;
50779;SDS011;36748;37.428;-121.972;2023-04-24T03:16:20;4.68;;;1.23;;
50779;SDS011;36748;37.428;-121.972;2023-04-24T03:18:46;4.07;;;1.20;;
50779;SDS011;36748;37.428;-121.972;2023-04-24T03:21:12;3.22;;;1.02;;
50779;SDS011;36748;37.428;-121.972;2023-04-24T03:23:38;3.67;;;1.15;;
50779;SDS011;36748;37.428;-121.972;2023-04-24T03:26:05;3.38;;;1.15;;
50779;SDS011;36748;37.428;-121.972;2023-04-24T03:28:31;6.60;;;1.30;;
50779;SDS011;36748;37.428;-121.972;2023-04-24T03:30:57;2.90;;;0.98;;
50779;SDS011;36748;37.428;-121.972;2023-04-24T03:33:23;5.38;;;1.55;;
50779;SDS011;36748;37.428;-121.972;2023-04-24T03:35:50;5.03;;;1.70;;
50779;SDS011;36748;37.428;-121.972;2023-04-24T03:38:16;5.00;;;1.45;;
50779;SDS011;36748;37.428;-121.972;2023-04-24T03:40:42;2.42;;;1.30;;
50779;SDS011;36748;37.428;-121.972;2023-04-24T03:43:08;5.13;;;1.23;;
50779;SDS011;36748;37.428;-121.972;2023-04-24T03:45:34;2.97;;;1.00;;
50779;SDS011;36748;37.428;-121.972;2023-04-24T03:48:01;2.95;;;1.15;;
50779;SDS011;36748;37.428;-121.972;2023-04-24T03:50:27;5.18;;;1.35;;
50779;SDS011;36748;37.428;-121.972;2023-04-24T03:52:54;5.20;;;1.30;;
50779;SDS011;36748;37.428;-121.972;2023-04-24T03:55:20;2.30;;;1.00;;
50779;SDS011;36748;37.428;-121.972;2023-04-24T03:57:47;4.20;;;1.10;;
50779;SDS011;36748;37.428;-121.972;2023-04-24T04:00:13;3.60;;;1.10;;
50779;SDS011;36748;37.428;-121.972;2023-04-24T04:02:39;5.13;;;0.82;;
50779;SDS011;36748;37.428;-121.972;2023-04-24T04:05:06;2.95;;;1.15;;
50779;SDS011;36748;37.428;-121.972;2023-04-24T04:07:33;3.85;;;1.00;;
50779;SDS011;36748;37.428;-121.972;2023-04-24T04:09:59;2.50;;;0.90;;
50779;SDS011;36748;37.428;-121.972;2023-04-24T04:12:26;2.55;;;1.10;;
50779;SDS011;36748;37.428;-121.972;2023-04-24T04:14:52;0.98;;;0.63;;
50779;SDS011;36748;37.428;-121.972;2023-04-24T04:17:18;3.67;;;1.23;;
50779;SDS011;36748;37.428;-121.972;2023-04-24T04:19:44;4.32;;;1.35;;
50779;SDS011;36748;37.428;-121.972;2023-04-24T04:22:10;4.10;;;1.30;;
50779;SDS011;36748;37.428;-121.972;2023-04-24T04:24:37;3.60;;;1.00;;
50779;SDS011;36748;37.428;-121.972;2023-04-24T04:27:06;3.45;;;1.17;;
50779;SDS011;36748;37.428;-121.972;2023-04-24T04:29:33;2.80;;;1.25;;
50779;SDS011;36748;37.428;-121.972;2023-04-24T04:32:00;3.25;;;1.00;;
50779;SDS011;36748;37.428;-121.972;2023-04-24T04:34:26;2.92;;;0.98;;
50779;SDS011;36748;37.428;-121.972;2023-04-24T04:36:52;2.80;;;0.93;;
50779;SDS011;36748;37.428;-121.972;2023-04-24T04:39:19;2.08;;;0.95;;
50779;SDS011;36748;37.428;-121.972;2023-04-24T04:41:45;1.65;;;0.70;;
50779;SDS011;36748;37.428;-121.972;2023-04-24T04:44:16;3.30;;;1.08;;
50779;SDS011;36748;37.428;-121.972;2023-04-24T04:46:42;3.67;;;1.00;;
50779;SDS011;36748;37.428;-121.972;2023-04-24T04:49:09;3.58;;;1.00;;
50779;SDS011;36748;37.428;-121.972;2023-04-24T04:51:36;2.47;;;0.90;;
50779;SDS011;36748;37.428;-121.972;2023-04-24T04:54:02;2.85;;;0.98;;
50779;SDS011;36748;37.428;-121.972;2023-04-24T04:56:28;4.82;;;1.13;;
50779;SDS011;36748;37.428;-121.972;2023-04-24T04:58:55;6.15;;;1.20;;
50779;SDS011;36748;37.428;-121.972;2023-04-24T05:01:21;3.50;;;1.30;;
50779;SDS011;36748;37.428;-121.972;2023-04-24T05:03:48;6.07;;;1.35;;
50779;SDS011;36748;37.428;-121.972;2023-04-24T05:06:14;3.72;;;1.15;;
50779;SDS011;36748;37.428;-121.972;2023-04-24T05:08:40;3.45;;;1.20;;
50779;SDS011;36748;37.428;-121.972;2023-04-24T05:11:07;6.65;;;1.02;;
50779;SDS011;36748;37.428;-121.972;2023-04-24T05:13:33;3.15;;;1.15;;
50779;SDS011;36748;37.428;-121.972;2023-04-24T05:15:59;2.55;;;0.95;;
50779;SDS011;36748;37.428;-121.972;2023-04-24T05:18:25;2.67;;;1.20;;
50779;SDS011;36748;37.428;-121.972;2023-04-24T05:20:52;3.15;;;1.00;;
50779;SDS011;36748;37.428;-121.972;2023-04-24T05:23:18;4.45;;;1.30;;
50779;SDS011;36748;37.428;-121.972;2023-04-24T05:25:44;5.95;;;1.13;;
50779;SDS011;36748;37.428;-121.972;2023-04-24T05:28:11;3.55;;;1.15;;
50779;SDS011;36748;37.428;-121.972;2023-04-24T05:30:37;2.22;;;1.00;;
50779;SDS011;36748;37.428;-121.972;2023-04-24T05:33:04;2.80;;;0.98;;
50779;SDS011;36748;37.428;-121.972;2023-04-24T05:35:30;4.18;;;1.15;;
50779;SDS011;36748;37.428;-121.972;2023-04-24T05:37:56;1.80;;;1.00;;
50779;SDS011;36748;37.428;-121.972;2023-04-24T05:40:22;2.90;;;1.20;;
50779;SDS011;36748;37.428;-121.972;2023-04-24T05:42:49;2.38;;;1.10;;
50779;SDS011;36748;37.428;-121.972;2023-04-24T05:45:15;3.63;;;1.00;;
50779;SDS011;36748;37.428;-121.972;2023-04-24T05:47:44;4.13;;;1.20;;
50779;SDS011;36748;37.428;-121.972;2023-04-24T05:50:10;1.77;;;0.88;;
50779;SDS011;36748;37.428;-121.972;2023-04-24T05:52:37;3.40;;;1.10;;
50779;SDS011;36748;37.428;-121.972;2023-04-24T05:55:03;2.53;;;1.00;;
50779;SDS011;36748;37.428;-121.972;2023-04-24T05:57:30;4.53;;;1.13;;
50779;SDS011;36748;37.428;-121.972;2023-04-24T06:00:17;3.00;;;1.40;;
50779;SDS011;36748;37.428;-121.972;2023-04-24T06:02:45;3.08;;;1.02;;
50779;SDS011;36748;37.428;-121.972;2023-04-24T06:05:12;3.35;;;1.20;;
50779;SDS011;36748;37.428;-121.972;2023-04-24T06:07:38;5.43;;;1.40;;
50779;SDS011;36748;37.428;-121.972;2023-04-24T06:10:05;2.50;;;1.23;;
50779;SDS011;36748;37.428;-121.972;2023-04-24T06:12:32;4.25;;;1.50;;
50779;SDS011;36748;37.428;-121.972;2023-04-24T06:14:58;2.92;;;1.20;;
50779;SDS011;36748;37.428;-121.972;2023-04-24T06:17:25;3.55;;;1.17;;
50779;SDS011;36748;37.428;-121.972;2023-04-24T06:19:51;3.17;;;1.40;;
50779;SDS011;36748;37.428;-121.972;2023-04-24T06:22:18;1.90;;;0.90;;
50779;SDS011;36748;37.428;-121.972;2023-04-24T06:24:44;3.08;;;1.30;;
50779;SDS011;36748;37.428;-121.972;2023-04-24T06:27:11;3.25;;;1.30;;
50779;SDS011;36748;37.428;-121.972;2023-04-24T06:29:37;1.77;;;0.90;;
50779;SDS011;36748;37.428;-121.972;2023-04-24T06:32:03;2.72;;;1.20;;
50779;SDS011;36748;37.428;-121.972;2023-04-24T06:34:29;3.35;;;1.10;;
50779;SDS011;36748;37.428;-121.972;2023-04-24T06:36:56;4.10;;;1.20;;
50779;SDS011;36748;37.428;-121.972;2023-04-24T06:39:22;5.22;;;1.50;;
50779;SDS011;36748;37.428;-121.972;2023-04-24T06:41:48;2.40;;;1.13;;
50779;SDS011;36748;37.428;-121.972;2023-04-24T06:44:14;3.40;;;1.08;;
50779;SDS011;36748;37.428;-121.972;2023-04-24T06:46:41;3.05;;;1.25;;
50779;SDS011;36748;37.428;-121.972;2023-04-24T06:49:08;2.13;;;1.05;;
50779;SDS011;36748;37.428;-121.972;2023-04-24T06:51:34;2.75;;;1.30;;
50779;SDS011;36748;37.428;-121.972;2023-04-24T06:54:00;3.50;;;1.27;;
50779;SDS011;36748;37.428;-121.972;2023-04-24T06:56:27;2.80;;;1.10;;
50779;SDS011;36748;37.428;-121.972;2023-04-24T06:58:54;2.80;;;1.00;;
50779;SDS011;36748;37.428;-121.972;2023-04-24T07:01:20;3.20;;;1.10;;
50779;SDS011;36748;37.428;-121.972;2023-04-24T07:03:47;2.80;;;1.20;;
50779;SDS011;36748;37.428;-121.972;2023-04-24T07:06:13;2.90;;;1.23;;
50779;SDS011;36748;37.428;-121.972;2023-04-24T07:08:41;3.33;;;1.35;;
50779;SDS011;36748;37.428;-121.972;2023-04-24T07:11:07;2.05;;;0.88;;
50779;SDS011;36748;37.428;-121.972;2023-04-24T07:13:34;2.47;;;1.35;;
50779;SDS011;36748;37.428;-121.972;2023-04-24T07:16:00;3.47;;;1.10;;
50779;SDS011;36748;37.428;-121.972;2023-04-24T07:18:27;2.60;;;1.23;;
50779;SDS011;36748;37.428;-121.972;2023-04-24T07:20:53;3.53;;;1.50;;
50779;SDS011;36748;37.428;-121.972;2023-04-24T07:23:19;2.97;;;1.20;;
50779;SDS011;36748;37.428;-121.972;2023-04-24T07:25:46;2.92;;;1.13;;
50779;SDS011;36748;37.428;-121.972;2023-04-24T07:28:12;3.10;;;1.02;;
50779;SDS011;36748;37.428;-121.972;2023-04-24T07:30:39;2.70;;;1.17;;
50779;SDS011;36748;37.428;-121.972;2023-04-24T07:33:05;3.38;;;1.35;;
50779;SDS011;36748;37.428;-121.972;2023-04-24T07:35:33;3.80;;;1.48;;
50779;SDS011;36748;37.428;-121.972;2023-04-24T07:38:00;2.58;;;1.17;;
50779;SDS011;36748;37.428;-121.972;2023-04-24T07:40:27;1.95;;;0.85;;
50779;SDS011;36748;37.428;-121.972;2023-04-24T07:42:53;3.28;;;1.13;;
50779;SDS011;36748;37.428;-121.972;2023-04-24T07:45:19;2.60;;;1.25;;
50779;SDS011;36748;37.428;-121.972;2023-04-24T07:47:45;2.70;;;1.10;;
50779;SDS011;36748;37.428;-121.972;2023-04-24T07:50:12;2.90;;;1.40;;
50779;SDS011;36748;37.428;-121.972;2023-04-24T07:52:38;2.90;;;1.20;;
50779;SDS011;36748;37.428;-121.972;2023-04-24T07:55:05;1.80;;;0.85;;
50779;SDS011;36748;37.428;-121.972;2023-04-24T07:57:32;2.40;;;1.10;;
50779;SDS011;36748;37.428;-121.972;2023-04-24T08:06:42;4.30;;;1.20;;
50779;SDS011;36748;37.428;-121.972;2023-04-24T08:09:08;3.03;;;1.02;;
50779;SDS011;36748;37.428;-121.972;2023-04-24T08:11:35;3.00;;;1.10;;
50779;SDS011;36748;37.428;-121.972;2023-04-24T08:14:01;4.68;;;1.55;;
50779;SDS011;36748;37.428;-121.972;2023-04-24T08:16:27;3.08;;;1.52;;
50779;SDS011;36748;37.428;-121.972;2023-04-24T08:18:53;2.47;;;1.23;;
50779;SDS011;36748;37.428;-121.972;2023-04-24T08:21:19;3.10;;;1.38;;
50779;SDS011;36748;37.428;-121.972;2023-04-24T08:23:46;3.47;;;1.35;;
50779;SDS011;36748;37.428;-121.972;2023-04-24T08:26:13;2.90;;;1.38;;
50779;SDS011;36748;37.428;-121.972;2023-04-24T08:28:39;3.25;;;1.55;;
50779;SDS011;36748;37.428;-121.972;2023-04-24T08:31:05;2.65;;;1.25;;
50779;SDS011;36748;37.428;-121.972;2023-04-24T08:33:32;3.78;;;1.30;;
50779;SDS011;36748;37.428;-121.972;2023-04-24T08:36:04;4.38;;;1.05;;
50779;SDS011;36748;37.428;-121.972;2023-04-24T08:38:31;2.60;;;1.20;;
50779;SDS011;36748;37.428;-121.972;2023-04-24T08:40:58;4.78;;;1.40;;
50779;SDS011;36748;37.428;-121.972;2023-04-24T08:43:26;4.50;;;1.58;;
50779;SDS011;36748;37.428;-121.972;2023-04-24T08:45:52;3.50;;;1.55;;
50779;SDS011;36748;37.428;-121.972;2023-04-24T08:48:21;4.53;;;1.33;;
50779;SDS011;36748;37.428;-121.972;2023-04-24T08:50:50;3.40;;;1.02;;
50779;SDS011;36748;37.428;-121.972;2023-04-24T08:53:17;3.10;;;1.20;;
50779;SDS011;36748;37.428;-121.972;2023-04-24T08:55:47;2.72;;;1.23;;
50779;SDS011;36748;37.428;-121.972;2023-04-24T08:58:15;3.00;;;1.10;;
50779;SDS011;36748;37.428;-121.972;2023-04-24T09:00:43;4.40;;;1.27;;
50779;SDS011;36748;37.428;-121.972;2023-04-24T09:03:13;3.03;;;1.13;;
50779;SDS011;36748;37.428;-121.972;2023-04-24T09:05:42;3.67;;;1.50;;
50779;SDS011;36748;37.428;-121.972;2023-04-24T09:08:11;1.67;;;0.93;;
50779;SDS011;36748;37.428;-121.972;2023-04-24T09:10:39;3.30;;;1.10;;
50779;SDS011;36748;37.428;-121.972;2023-04-24T09:13:06;3.10;;;1.27;;
50779;SDS011;36748;37.428;-121.972;2023-04-24T09:15:34;3.83;;;1.40;;
50779;SDS011;36748;37.428;-121.972;2023-04-24T09:18:01;2.65;;;1.25;;
50779;SDS011;36748;37.428;-121.972;2023-04-24T09:20:27;2.25;;;1.08;;
50779;SDS011;36748;37.428;-121.972;2023-04-24T09:22:54;1.92;;;0.80;;
50779;SDS011;36748;37.428;-121.972;2023-04-24T09:25:20;2.58;;;1.00;;
50779;SDS011;36748;37.428;-121.972;2023-04-24T09:27:47;2.45;;;1.25;;
50779;SDS011;36748;37.428;-121.972;2023-04-24T09:30:13;2.28;;;1.10;;
50779;SDS011;36748;37.428;-121.972;2023-04-24T09:32:40;2.45;;;1.30;;
50779;SDS011;36748;37.428;-121.972;2023-04-24T09:35:10;2.13;;;1.08;;
50779;SDS011;36748;37.428;-121.972;2023-04-24T09:37:42;2.92;;;1.20;;
50779;SDS011;36748;37.428;-121.972;2023-04-24T09:40:16;3.63;;;1.00;;
50779;SDS011;36748;37.428;-121.972;2023-04-24T09:42:44;3.13;;;1.40;;
50779;SDS011;36748;37.428;-121.972;2023-04-24T09:45:21;3.63;;;1.30;;
50779;SDS011;36748;37.428;-121.972;2023-04-24T09:47:51;3.15;;;1.17;;
50779;SDS011;36748;37.428;-121.972;2023-04-24T09:50:19;2.90;;;1.42;;
50779;SDS011;36748;37.428;-121.972;2023-04-24T09:52:46;2.25;;;1.10;;
50779;SDS011;36748;37.428;-121.972;2023-04-24T09:55:21;2.53;;;1.20;;
50779;SDS011;36748;37.428;-121.972;2023-04-24T09:57:57;5.85;;;1.63;;
50779;SDS011;36748;37.428;-121.972;2023-04-24T10:00:29;4.13;;;1.60;;
50779;SDS011;36748;37.428;-121.972;2023-04-24T10:05:28;2.20;;;1.20;;
50779;SDS011;36748;37.428;-121.972;2023-04-24T10:08:02;1.63;;;0.95;;
50779;SDS011;36748;37.428;-121.972;2023-04-24T10:10:34;2.35;;;1.10;;
50779;SDS011;36748;37.428;-121.972;2023-04-24T10:13:05;3.17;;;1.50;;
50779;SDS011;36748;37.428;-121.972;2023-04-24T10:15:33;3.53;;;1.30;;
50779;SDS011;36748;37.428;-121.972;2023-04-24T10:18:00;2.70;;;1.33;;
50779;SDS011;36748;37.428;-121.972;2023-04-24T10:20:27;2.67;;;1.15;;
50779;SDS011;36748;37.428;-121.972;2023-04-24T10:22:57;1.92;;;1.30;;
50779;SDS011;36748;37.428;-121.972;2023-04-24T10:25:25;2.42;;;1.23;;
50779;SDS011;36748;37.428;-121.972;2023-04-24T10:27:53;3.05;;;1.45;;
50779;SDS011;36748;37.428;-121.972;2023-04-24T10:30:22;3.03;;;1.40;;
50779;SDS011;36748;37.428;-121.972;2023-04-24T10:32:49;2.03;;;0.93;;
50779;SDS011;36748;37.428;-121.972;2023-04-24T10:35:15;2.40;;;1.20;;
50779;SDS011;36748;37.428;-121.972;2023-04-24T10:37:47;4.03;;;1.20;;
50779;SDS011;36748;37.428;-121.972;2023-04-24T10:40:17;3.28;;;1.33;;
50779;SDS011;36748;37.428;-121.972;2023-04-24T10:42:47;1.80;;;1.13;;
50779;SDS011;36748;37.428;-121.972;2023-04-24T10:45:17;2.60;;;1.10;;
50779;SDS011;36748;37.428;-121.972;2023-04-24T10:48:06;2.90;;;1.33;;
50779;SDS011;36748;37.428;-121.972;2023-04-24T10:50:45;4.20;;;1.40;;
50779;SDS011;36748;37.428;-121.972;2023-04-24T10:53:13;3.17;;;1.10;;
50779;SDS011;36748;37.428;-121.972;2023-04-24T10:55:44;1.95;;;1.00;;
50779;SDS011;36748;37.428;-121.972;2023-04-24T10:58:11;4.10;;;1.20;;
50779;SDS011;36748;37.428;-121.972;2023-04-24T11:00:38;1.58;;;0.98;;
50779;SDS011;36748;37.428;-121.972;2023-04-24T11:03:07;2.95;;;1.30;;
50779;SDS011;36748;37.428;-121.972;2023-04-24T11:11:13;2.45;;;1.20;;
50779;SDS011;36748;37.428;-121.972;2023-04-24T11:16:26;1.70;;;1.02;;
50779;SDS011;36748;37.428;-121.972;2023-04-24T11:19:05;1.92;;;0.90;;
50779;SDS011;36748;37.428;-121.972;2023-04-24T11:27:38;3.28;;;1.30;;
50779;SDS011;36748;37.428;-121.972;2023-04-24T11:32:27;2.63;;;1.23;;
50779;SDS011;36748;37.428;-121.972;2023-04-24T11:34:54;3.33;;;1.33;;
50779;SDS011;36748;37.428;-121.972;2023-04-24T11:37:55;2.10;;;0.90;;
50779;SDS011;36748;37.428;-121.972;2023-04-24T11:40:15;3.00;;;1.08;;
50779;SDS011;36748;37.428;-121.972;2023-04-24T11:42:49;3.17;;;1.30;;
50779;SDS011;36748;37.428;-121.972;2023-04-24T11:45:17;2.70;;;1.30;;
50779;SDS011;36748;37.428;-121.972;2023-04-24T11:47:46;2.17;;;1.17;;
50779;SDS011;36748;37.428;-121.972;2023-04-24T11:50:13;2.15;;;1.15;;
50779;SDS011;36748;37.428;-121.972;2023-04-24T11:52:41;2.38;;;0.90;;
50779;SDS011;36748;37.428;-121.972;2023-04-24T11:55:30;4.20;;;1.38;;
50779;SDS011;36748;37.428;-121.972;2023-04-24T11:57:56;3.80;;;1.67;;
50779;SDS011;36748;37.428;-121.972;2023-04-24T12:00:24;2.08;;;1.00;;
50779;SDS011;36748;37.428;-121.972;2023-04-24T12:02:53;2.13;;;1.00;;
50779;SDS011;36748;37.428;-121.972;2023-04-24T12:05:32;2.53;;;1.27;;
50779;SDS011;36748;37.428;-121.972;2023-04-24T12:07:59;2.42;;;0.95;;
50779;SDS011;36748;37.428;-121.972;2023-04-24T12:10:26;2.35;;;1.30;;
50779;SDS011;36748;37.428;-121.972;2023-04-24T12:12:55;3.80;;;1.40;;
50779;SDS011;36748;37.428;-121.972;2023-04-24T12:15:22;3.58;;;1.45;;
50779;SDS011;36748;37.428;-121.972;2023-04-24T12:17:50;2.22;;;1.08;;
50779;SDS011;36748;37.428;-121.972;2023-04-24T12:20:19;2.80;;;1.20;;
50779;SDS011;36748;37.428;-121.972;2023-04-24T12:22:54;2.33;;;1.23;;
50779;SDS011;36748;37.428;-121.972;2023-04-24T12:25:32;2.88;;;1.10;;
50779;SDS011;36748;37.428;-121.972;2023-04-24T12:30:29;1.77;;;0.90;;
50779;SDS011;36748;37.428;-121.972;2023-04-24T12:32:57;2.35;;;1.33;;
50779;SDS011;36748;37.428;-121.972;2023-04-24T12:35:25;2.42;;;1.00;;
50779;SDS011;36748;37.428;-121.972;2023-04-24T12:37:53;2.22;;;1.10;;
50779;SDS011;36748;37.428;-121.972;2023-04-24T12:40:20;1.90;;;0.93;;
50779;SDS011;36748;37.428;-121.972;2023-04-24T12:42:51;2.72;;;1.48;;
50779;SDS011;36748;37.428;-121.972;2023-04-24T12:45:18;4.82;;;1.30;;
50779;SDS011;36748;37.428;-121.972;2023-04-24T12:47:45;2.92;;;1.33;;
50779;SDS011;36748;37.428;-121.972;2023-04-24T12:50:12;2.85;;;1.38;;
50779;SDS011;36748;37.428;-121.972;2023-04-24T12:52:39;2.22;;;1.20;;
50779;SDS011;36748;37.428;-121.972;2023-04-24T12:55:06;3.53;;;1.20;;
50779;SDS011;36748;37.428;-121.972;2023-04-24T12:57:33;2.03;;;1.20;;
50779;SDS011;36748;37.428;-121.972;2023-04-24T13:00:01;1.88;;;1.10;;
50779;SDS011;36748;37.428;-121.972;2023-04-24T13:02:29;15.38;;;1.27;;
50779;SDS011;36748;37.428;-121.972;2023-04-24T13:04:56;2.90;;;1.02;;
50779;SDS011;36748;37.428;-121.972;2023-04-24T13:07:23;1.90;;;1.30;;
50779;SDS011;36748;37.428;-121.972;2023-04-24T13:09:50;4.38;;;1.17;;
50779;SDS011;36748;37.428;-121.972;2023-04-24T13:12:17;2.88;;;1.02;;
50779;SDS011;36748;37.428;-121.972;2023-04-24T13:14:43;3.35;;;1.83;;
50779;SDS011;36748;37.428;-121.972;2023-04-24T13:17:11;5.60;;;1.10;;
50779;SDS011;36748;37.428;-121.972;2023-04-24T13:19:39;2.25;;;1.05;;
50779;SDS011;36748;37.428;-121.972;2023-04-24T13:22:06;3.72;;;1.20;;
50779;SDS011;36748;37.428;-121.972;2023-04-24T13:24:34;2.67;;;1.33;;
50779;SDS011;36748;37.428;-121.972;2023-04-24T13:27:00;2.08;;;1.10;;
50779;SDS011;36748;37.428;-121.972;2023-04-24T13:29:27;3.22;;;1.20;;
50779;SDS011;36748;37.428;-121.972;2023-04-24T13:32:13;8.00;;;1.75;;
50779;SDS011;36748;37.428;-121.972;2023-04-24T13:34:40;2.55;;;1.25;;
50779;SDS011;36748;37.428;-121.972;2023-04-24T13:37:06;5.32;;;1.38;;
50779;SDS011;36748;37.428;-121.972;2023-04-24T13:39:33;4.88;;;1.33;;
50779;SDS011;36748;37.428;-121.972;2023-04-24T13:42:00;3.08;;;1.23;;
50779;SDS011;36748;37.428;-121.972;2023-04-24T13:44:26;5.47;;;1.30;;
50779;SDS011;36748;37.428;-121.972;2023-04-24T13:46:53;2.38;;;1.10;;
50779;SDS011;36748;37.428;-121.972;2023-04-24T13:49:22;2.22;;;1.30;;
50779;SDS011;36748;37.428;-121.972;2023-04-24T13:51:52;2.35;;;1.30;;
50779;SDS011;36748;37.428;-121.972;2023-04-24T13:54:19;4.18;;;1.00;;
50779;SDS011;36748;37.428;-121.972;2023-04-24T13:56:46;2.45;;;0.98;;
50779;SDS011;36748;37.428;-121.972;2023-04-24T13:59:12;3.28;;;1.38;;
50779;SDS011;36748;37.428;-121.972;2023-04-24T14:01:39;2.30;;;1.00;;
50779;SDS011;36748;37.428;-121.972;2023-04-24T14:04:05;2.25;;;0.90;;
50779;SDS011;36748;37.428;-121.972;2023-04-24T14:06:31;3.35;;;1.10;;
50779;SDS011;36748;37.428;-121.972;2023-04-24T14:08:58;2.97;;;1.17;;
50779;SDS011;36748;37.428;-121.972;2023-04-24T14:11:24;2.80;;;1.20;;
50779;SDS011;36748;37.428;-121.972;2023-04-24T14:13:52;3.95;;;1.17;;
50779;SDS011;36748;37.428;-121.972;2023-04-24T14:16:21;2.10;;;1.02;;
50779;SDS011;36748;37.428;-121.972;2023-04-24T14:18:47;5.53;;;1.50;;
50779;SDS011;36748;37.428;-121.972;2023-04-24T14:21:14;2.55;;;1.20;;
50779;SDS011;36748;37.428;-121.972;2023-04-24T14:23:41;2.75;;;1.10;;
50779;SDS011;36748;37.428;-121.972;2023-04-24T14:26:07;6.88;;;1.35;;
50779;SDS011;36748;37.428;-121.972;2023-04-24T14:28:33;1.80;;;0.93;;
50779;SDS011;36748;37.428;-121.972;2023-04-24T14:31:00;2.85;;;0.98;;
50779;SDS011;36748;37.428;-121.972;2023-04-24T14:33:26;2.00;;;0.95;;
50779;SDS011;36748;37.428;-121.972;2023-04-24T14:35:52;2.03;;;1.00;;
50779;SDS011;36748;37.428;-121.972;2023-04-24T14:38:19;3.72;;;1.30;;